sensor_id;sensor_type;location;lat;lon;timestamp;pressure;altitude;pressure_sealevel;temperature;humidity
12215;BME280;6170;42.206;24.142;2022-11-20T00:01:04;98280.28;;;11.66;99.44
12215;BME280;6170;42.206;24.142;2022-11-20T00:03:32;98292.25;;;11.46;99.75
12215;BME280;6170;42.206;24.142;2022-11-20T00:06:01;98270.50;;;11.54;99.45
12215;BME280;6170;42.206;24.142;2022-11-20T00:08:28;98287.03;;;11.51;99.67
12215;BME280;6170;42.206;24.142;2022-11-20T00:10:54;98299.72;;;11.62;99.28
12215;BME280;6170;42.206;24.142;2022-11-20T00:13:21;98300.81;;;11.30;100.00
12215;BME280;6170;42.206;24.142;2022-11-20T00:15:48;98268.09;;;10.96;100.00
12215;BME280;6170;42.206;24.142;2022-11-20T00:18:23;98289.69;;;11.33;100.00
12215;BME280;6170;42.206;24.142;2022-11-20T00:20:49;98282.31;;;11.46;100.00
12215;BME280;6170;42.206;24.142;2022-11-20T00:23:17;98288.84;;;11.32;100.00
12215;BME280;6170;42.206;24.142;2022-11-20T00:25:44;98252.31;;;10.81;100.00
12215;BME280;6170;42.206;24.142;2022-11-20T00:28:11;98284.34;;;11.01;100.00
12215;BME280;6170;42.206;24.142;2022-11-20T00:30:38;98293.44;;;11.00;100.00
12215;BME280;6170;42.206;24.142;2022-11-20T00:33:05;98273.31;;;10.85;100.00
12215;BME280;6170;42.206;24.142;2022-11-20T00:35:31;98271.50;;;11.10;100.00
12215;BME280;6170;42.206;24.142;2022-11-20T00:37:58;98273.13;;;11.11;100.00
12215;BME280;6170;42.206;24.142;2022-11-20T00:40:26;98289.56;;;11.21;100.00
12215;BME280;6170;42.206;24.142;2022-11-20T00:42:53;98317.84;;;10.86;100.00
12215;BME280;6170;42.206;24.142;2022-11-20T00:45:20;98275.31;;;10.96;100.00
12215;BME280;6170;42.206;24.142;2022-11-20T00:47:47;98264.13;;;11.05;100.00
12215;BME280;6170;42.206;24.142;2022-11-20T00:50:13;98270.69;;;11.09;100.00
12215;BME280;6170;42.206;24.142;2022-11-20T00:52:40;98269.19;;;10.89;100.00
12215;BME280;6170;42.206;24.142;2022-11-20T00:55:07;98262.28;;;10.99;100.00
12215;BME280;6170;42.206;24.142;2022-11-20T00:57:36;98252.34;;;11.06;99.76
12215;BME280;6170;42.206;24.142;2022-11-20T01:00:03;98268.00;;;11.09;99.85
12215;BME280;6170;42.206;24.142;2022-11-20T01:02:30;98246.84;;;10.70;100.00
12215;BME280;6170;42.206;24.142;2022-11-20T01:04:57;98253.41;;;10.74;100.00
12215;BME280;6170;42.206;24.142;2022-11-20T01:07:24;98222.72;;;10.70;100.00
12215;BME280;6170;42.206;24.142;2022-11-20T01:09:50;98211.09;;;10.82;100.00
12215;BME280;6170;42.206;24.142;2022-11-20T01:12:17;98213.31;;;10.86;100.00
12215;BME280;6170;42.206;24.142;2022-11-20T01:14:46;98203.03;;;10.82;100.00
12215;BME280;6170;42.206;24.142;2022-11-20T01:17:13;98239.91;;;10.87;100.00
12215;BME280;6170;42.206;24.142;2022-11-20T01:19:40;98230.22;;;10.86;100.00
12215;BME280;6170;42.206;24.142;2022-11-20T01:22:07;98208.34;;;10.89;100.00
12215;BME280;6170;42.206;24.142;2022-11-20T01:24:33;98208.34;;;11.14;100.00
12215;BME280;6170;42.206;24.142;2022-11-20T01:27:00;98266.44;;;11.20;100.00
12215;BME280;6170;42.206;24.142;2022-11-20T01:29:27;98220.16;;;10.81;100.00
12215;BME280;6170;42.206;24.142;2022-11-20T01:31:55;98231.16;;;10.98;100.00
12215;BME280;6170;42.206;24.142;2022-11-20T01:34:22;98220.53;;;10.85;100.00
12215;BME280;6170;42.206;24.142;2022-11-20T01:36:50;98227.34;;;11.12;100.00
12215;BME280;6170;42.206;24.142;2022-11-20T01:39:19;98183.84;;;10.86;100.00
12215;BME280;6170;42.206;24.142;2022-11-20T01:41:47;98212.41;;;11.23;100.00
12215;BME280;6170;42.206;24.142;2022-11-20T01:44:47;98183.31;;;11.63;100.00
12215;BME280;6170;42.206;24.142;2022-11-20T01:47:21;98187.38;;;11.72;100.00
12215;BME280;6170;42.206;24.142;2022-11-20T01:49:51;98179.69;;;11.94;100.00
12215;BME280;6170;42.206;24.142;2022-11-20T01:52:20;98165.84;;;12.08;100.00
12215;BME280;6170;42.206;24.142;2022-11-20T01:54:50;98185.22;;;11.81;100.00
12215;BME280;6170;42.206;24.142;2022-11-20T01:57:20;98179.22;;;11.79;100.00
12215;BME280;6170;42.206;24.142;2022-11-20T01:59:52;98197.44;;;11.77;100.00
12215;BME280;6170;42.206;24.142;2022-11-20T02:02:22;98183.41;;;11.13;100.00
12215;BME280;6170;42.206;24.142;2022-11-20T02:04:51;98199.16;;;11.46;100.00
12215;BME280;6170;42.206;24.142;2022-11-20T02:07:21;98175.44;;;11.25;100.00
12215;BME280;6170;42.206;24.142;2022-11-20T02:09:50;98196.47;;;11.28;100.00
12215;BME280;6170;42.206;24.142;2022-11-20T02:12:17;98195.50;;;11.22;100.00
12215;BME280;6170;42.206;24.142;2022-11-20T02:14:58;98182.69;;;11.43;100.00
12215;BME280;6170;42.206;24.142;2022-11-20T02:17:26;98215.06;;;11.66;100.00
12215;BME280;6170;42.206;24.142;2022-11-20T02:19:54;98174.66;;;11.61;100.00
12215;BME280;6170;42.206;24.142;2022-11-20T02:22:25;98178.09;;;11.68;100.00
12215;BME280;6170;42.206;24.142;2022-11-20T02:24:56;98182.41;;;11.69;100.00
12215;BME280;6170;42.206;24.142;2022-11-20T02:27:25;98176.19;;;11.75;100.00
12215;BME280;6170;42.206;24.142;2022-11-20T02:29:54;98165.56;;;11.62;100.00
12215;BME280;6170;42.206;24.142;2022-11-20T02:32:25;98180.13;;;11.54;100.00
12215;BME280;6170;42.206;24.142;2022-11-20T02:34:52;98205.34;;;11.47;100.00
12215;BME280;6170;42.206;24.142;2022-11-20T02:37:20;98159.66;;;11.35;100.00
12215;BME280;6170;42.206;24.142;2022-11-20T02:39:49;98187.19;;;11.49;100.00
12215;BME280;6170;42.206;24.142;2022-11-20T02:42:18;98172.06;;;11.11;100.00
12215;BME280;6170;42.206;24.142;2022-11-20T02:44:45;98182.41;;;11.33;100.00
12215;BME280;6170;42.206;24.142;2022-11-20T02:47:11;98166.16;;;11.27;100.00
12215;BME280;6170;42.206;24.142;2022-11-20T02:49:38;98138.88;;;11.31;100.00
12215;BME280;6170;42.206;24.142;2022-11-20T02:52:05;98153.28;;;11.36;100.00
12215;BME280;6170;42.206;24.142;2022-11-20T02:54:31;98130.59;;;11.14;100.00
12215;BME280;6170;42.206;24.142;2022-11-20T02:56:58;98133.41;;;11.01;100.00
12215;BME280;6170;42.206;24.142;2022-11-20T02:59:26;98127.38;;;11.05;100.00
12215;BME280;6170;42.206;24.142;2022-11-20T03:01:53;98128.28;;;11.17;100.00
12215;BME280;6170;42.206;24.142;2022-11-20T03:04:20;98125.94;;;11.27;100.00
12215;BME280;6170;42.206;24.142;2022-11-20T03:06:46;98131.72;;;11.24;100.00
12215;BME280;6170;42.206;24.142;2022-11-20T03:09:13;98144.47;;;11.29;100.00
12215;BME280;6170;42.206;24.142;2022-11-20T03:11:40;98131.97;;;11.23;100.00
12215;BME280;6170;42.206;24.142;2022-11-20T03:14:07;98126.66;;;11.16;100.00
12215;BME280;6170;42.206;24.142;2022-11-20T03:16:35;98131.56;;;11.01;100.00
12215;BME280;6170;42.206;24.142;2022-11-20T03:19:02;98167.69;;;11.17;100.00
12215;BME280;6170;42.206;24.142;2022-11-20T03:21:28;98185.25;;;11.13;100.00
12215;BME280;6170;42.206;24.142;2022-11-20T03:23:55;98159.72;;;10.86;100.00
12215;BME280;6170;42.206;24.142;2022-11-20T03:26:24;98183.66;;;11.30;100.00
12215;BME280;6170;42.206;24.142;2022-11-20T03:28:52;98164.81;;;10.94;100.00
12215;BME280;6170;42.206;24.142;2022-11-20T03:31:21;98165.41;;;10.96;100.00
12215;BME280;6170;42.206;24.142;2022-11-20T03:33:49;98155.41;;;11.09;100.00
12215;BME280;6170;42.206;24.142;2022-11-20T03:36:18;98160.97;;;11.08;100.00
12215;BME280;6170;42.206;24.142;2022-11-20T03:38:45;98166.31;;;11.33;100.00
12215;BME280;6170;42.206;24.142;2022-11-20T03:41:14;98154.81;;;11.25;100.00
12215;BME280;6170;42.206;24.142;2022-11-20T03:43:41;98159.53;;;11.48;100.00
12215;BME280;6170;42.206;24.142;2022-11-20T03:46:07;98166.69;;;11.54;100.00
12215;BME280;6170;42.206;24.142;2022-11-20T03:48:34;98163.47;;;11.03;100.00
12215;BME280;6170;42.206;24.142;2022-11-20T03:51:11;98170.38;;;11.17;100.00
12215;BME280;6170;42.206;24.142;2022-11-20T03:53:41;98186.69;;;11.34;100.00
12215;BME280;6170;42.206;24.142;2022-11-20T03:56:08;98197.38;;;11.40;100.00
12215;BME280;6170;42.206;24.142;2022-11-20T03:58:36;98193.69;;;11.59;100.00
12215;BME280;6170;42.206;24.142;2022-11-20T04:01:06;98185.88;;;11.76;100.00
12215;BME280;6170;42.206;24.142;2022-11-20T04:03:33;98182.03;;;11.65;100.00
12215;BME280;6170;42.206;24.142;2022-11-20T04:06:04;98227.91;;;12.00;100.00
12215;BME280;6170;42.206;24.142;2022-11-20T04:08:33;98182.94;;;11.78;100.00
12215;BME280;6170;42.206;24.142;2022-11-20T04:11:10;98191.78;;;11.60;100.00
12215;BME280;6170;42.206;24.142;2022-11-20T04:13:37;98175.34;;;11.13;100.00
12215;BME280;6170;42.206;24.142;2022-11-20T04:16:05;98167.22;;;11.20;100.00
12215;BME280;6170;42.206;24.142;2022-11-20T04:18:32;98180.75;;;11.32;100.00
12215;BME280;6170;42.206;24.142;2022-11-20T04:20:59;98161.63;;;11.28;100.00
12215;BME280;6170;42.206;24.142;2022-11-20T04:23:26;98164.56;;;11.38;100.00
12215;BME280;6170;42.206;24.142;2022-11-20T04:26:00;98169.13;;;11.19;100.00
12215;BME280;6170;42.206;24.142;2022-11-20T04:28:27;98155.34;;;11.34;100.00
12215;BME280;6170;42.206;24.142;2022-11-20T04:30:54;98171.28;;;11.47;100.00
12215;BME280;6170;42.206;24.142;2022-11-20T04:33:20;98173.56;;;11.50;100.00
12215;BME280;6170;42.206;24.142;2022-11-20T04:35:47;98165.63;;;11.55;100.00
12215;BME280;6170;42.206;24.142;2022-11-20T04:38:14;98187.34;;;11.54;100.00
12215;BME280;6170;42.206;24.142;2022-11-20T04:40:41;98155.28;;;11.41;100.00
12215;BME280;6170;42.206;24.142;2022-11-20T04:43:09;98150.81;;;11.53;100.00
12215;BME280;6170;42.206;24.142;2022-11-20T04:45:35;98155.97;;;11.54;100.00
12215;BME280;6170;42.206;24.142;2022-11-20T04:48:02;98137.69;;;11.45;100.00
12215;BME280;6170;42.206;24.142;2022-11-20T04:50:29;98147.97;;;11.48;100.00
12215;BME280;6170;42.206;24.142;2022-11-20T04:52:56;98154.00;;;11.25;100.00
12215;BME280;6170;42.206;24.142;2022-11-20T04:55:22;98144.38;;;11.17;100.00
12215;BME280;6170;42.206;24.142;2022-11-20T04:57:50;98142.59;;;10.87;100.00
12215;BME280;6170;42.206;24.142;2022-11-20T05:00:18;98156.75;;;11.18;100.00
12215;BME280;6170;42.206;24.142;2022-11-20T05:02:45;98165.22;;;11.15;100.00
12215;BME280;6170;42.206;24.142;2022-11-20T05:05:12;98156.72;;;11.00;100.00
12215;BME280;6170;42.206;24.142;2022-11-20T05:07:39;98172.38;;;11.21;100.00
12215;BME280;6170;42.206;24.142;2022-11-20T05:10:06;98168.25;;;11.01;100.00
12215;BME280;6170;42.206;24.142;2022-11-20T05:12:33;98167.19;;;10.84;100.00
12215;BME280;6170;42.206;24.142;2022-11-20T05:15:00;98201.78;;;11.10;100.00
12215;BME280;6170;42.206;24.142;2022-11-20T05:17:28;98160.50;;;10.93;100.00
12215;BME280;6170;42.206;24.142;2022-11-20T05:19:55;98160.50;;;11.11;100.00
12215;BME280;6170;42.206;24.142;2022-11-20T05:22:21;98137.75;;;11.02;100.00
12215;BME280;6170;42.206;24.142;2022-11-20T05:24:48;98145.66;;;10.90;100.00
12215;BME280;6170;42.206;24.142;2022-11-20T05:27:15;98160.97;;;11.08;100.00
12215;BME280;6170;42.206;24.142;2022-11-20T05:29:42;98192.16;;;11.27;100.00
12215;BME280;6170;42.206;24.142;2022-11-20T05:32:09;98147.59;;;11.26;100.00
12215;BME280;6170;42.206;24.142;2022-11-20T05:34:37;98158.78;;;11.23;100.00
12215;BME280;6170;42.206;24.142;2022-11-20T05:37:03;98156.38;;;11.33;100.00
12215;BME280;6170;42.206;24.142;2022-11-20T05:39:30;98170.03;;;11.32;100.00
12215;BME280;6170;42.206;24.142;2022-11-20T05:41:57;98150.81;;;11.35;100.00
12215;BME280;6170;42.206;24.142;2022-11-20T05:44:38;98144.78;;;11.57;100.00
12215;BME280;6170;42.206;24.142;2022-11-20T05:47:05;98146.84;;;11.55;99.96
12215;BME280;6170;42.206;24.142;2022-11-20T05:49:32;98147.97;;;11.48;99.98
12215;BME280;6170;42.206;24.142;2022-11-20T05:52:00;98149.25;;;11.63;100.00
12215;BME280;6170;42.206;24.142;2022-11-20T05:54:26;98136.13;;;11.74;99.70
12215;BME280;6170;42.206;24.142;2022-11-20T05:56:53;98147.81;;;11.97;99.21
12215;BME280;6170;42.206;24.142;2022-11-20T05:59:20;98146.94;;;12.03;98.08
12215;BME280;6170;42.206;24.142;2022-11-20T06:01:47;98137.47;;;11.83;98.17
12215;BME280;6170;42.206;24.142;2022-11-20T06:04:13;98158.25;;;12.05;98.18
12215;BME280;6170;42.206;24.142;2022-11-20T06:06:40;98179.66;;;12.12;97.58
12215;BME280;6170;42.206;24.142;2022-11-20T06:09:08;98180.34;;;12.07;97.67
12215;BME280;6170;42.206;24.142;2022-11-20T06:11:35;98184.28;;;11.87;98.23
12215;BME280;6170;42.206;24.142;2022-11-20T06:14:02;98197.03;;;11.73;98.79
12215;BME280;6170;42.206;24.142;2022-11-20T06:16:28;98208.91;;;11.84;99.30
12215;BME280;6170;42.206;24.142;2022-11-20T06:18:55;98205.19;;;12.03;99.57
12215;BME280;6170;42.206;24.142;2022-11-20T06:21:22;98204.31;;;11.66;100.00
12215;BME280;6170;42.206;24.142;2022-11-20T06:23:50;98210.47;;;11.91;100.00
12215;BME280;6170;42.206;24.142;2022-11-20T06:26:20;98201.66;;;12.02;98.00
12215;BME280;6170;42.206;24.142;2022-11-20T06:28:47;98226.75;;;12.26;97.71
12215;BME280;6170;42.206;24.142;2022-11-20T06:31:15;98187.03;;;12.17;98.08
12215;BME280;6170;42.206;24.142;2022-11-20T06:33:43;98196.59;;;12.12;98.88
12215;BME280;6170;42.206;24.142;2022-11-20T06:36:10;98196.97;;;12.87;97.01
12215;BME280;6170;42.206;24.142;2022-11-20T06:38:38;98230.72;;;14.23;94.30
12215;BME280;6170;42.206;24.142;2022-11-20T06:41:06;98202.41;;;14.49;89.22
12215;BME280;6170;42.206;24.142;2022-11-20T06:43:34;98225.06;;;15.43;83.54
12215;BME280;6170;42.206;24.142;2022-11-20T06:46:01;98203.28;;;15.66;82.58
12215;BME280;6170;42.206;24.142;2022-11-20T06:48:28;98198.16;;;15.14;84.29
12215;BME280;6170;42.206;24.142;2022-11-20T06:50:55;98199.78;;;15.65;84.19
12215;BME280;6170;42.206;24.142;2022-11-20T06:53:23;98187.97;;;15.93;83.78
12215;BME280;6170;42.206;24.142;2022-11-20T06:55:50;98184.78;;;16.93;78.30
12215;BME280;6170;42.206;24.142;2022-11-20T06:58:18;98201.41;;;17.86;74.60
12215;BME280;6170;42.206;24.142;2022-11-20T07:00:46;98205.38;;;18.20;75.94
12215;BME280;6170;42.206;24.142;2022-11-20T07:03:14;98213.19;;;19.04;71.62
12215;BME280;6170;42.206;24.142;2022-11-20T07:05:41;98247.41;;;19.76;69.43
12215;BME280;6170;42.206;24.142;2022-11-20T07:08:08;98209.44;;;20.40;67.61
12215;BME280;6170;42.206;24.142;2022-11-20T07:10:34;98201.31;;;20.84;64.83
12215;BME280;6170;42.206;24.142;2022-11-20T07:13:01;98200.38;;;20.55;64.86
12215;BME280;6170;42.206;24.142;2022-11-20T07:15:28;98223.22;;;19.85;67.86
12215;BME280;6170;42.206;24.142;2022-11-20T07:17:58;98227.31;;;19.57;69.10
12215;BME280;6170;42.206;24.142;2022-11-20T07:20:25;98231.28;;;20.15;66.04
12215;BME280;6170;42.206;24.142;2022-11-20T07:22:53;98213.06;;;20.05;67.91
12215;BME280;6170;42.206;24.142;2022-11-20T07:25:21;98241.84;;;20.86;66.03
12215;BME280;6170;42.206;24.142;2022-11-20T07:27:48;98225.31;;;20.72;66.10
12215;BME280;6170;42.206;24.142;2022-11-20T07:30:14;98230.34;;;20.45;66.80
12215;BME280;6170;42.206;24.142;2022-11-20T07:32:41;98233.41;;;20.28;66.77
12215;BME280;6170;42.206;24.142;2022-11-20T07:35:10;98225.16;;;20.53;66.65
12215;BME280;6170;42.206;24.142;2022-11-20T07:37:36;98230.44;;;20.84;67.31
12215;BME280;6170;42.206;24.142;2022-11-20T07:40:04;98226.69;;;20.75;66.36
12215;BME280;6170;42.206;24.142;2022-11-20T07:42:31;98223.19;;;20.64;66.08
12215;BME280;6170;42.206;24.142;2022-11-20T07:44:58;98227.44;;;20.26;67.91
12215;BME280;6170;42.206;24.142;2022-11-20T07:47:24;98215.75;;;20.31;68.19
12215;BME280;6170;42.206;24.142;2022-11-20T07:49:51;98206.81;;;20.10;67.45
12215;BME280;6170;42.206;24.142;2022-11-20T07:52:19;98192.44;;;20.04;68.02
12215;BME280;6170;42.206;24.142;2022-11-20T07:54:46;98213.91;;;20.01;68.70
12215;BME280;6170;42.206;24.142;2022-11-20T07:57:13;98216.63;;;20.06;69.44
12215;BME280;6170;42.206;24.142;2022-11-20T07:59:39;98218.56;;;19.95;67.31
12215;BME280;6170;42.206;24.142;2022-11-20T08:02:09;98204.91;;;20.10;69.83
12215;BME280;6170;42.206;24.142;2022-11-20T08:04:36;98205.75;;;20.06;69.08
12215;BME280;6170;42.206;24.142;2022-11-20T08:07:03;98217.88;;;20.39;69.19
12215;BME280;6170;42.206;24.142;2022-11-20T08:09:31;98222.81;;;20.32;67.36
12215;BME280;6170;42.206;24.142;2022-11-20T08:11:58;98227.16;;;20.33;67.73
12215;BME280;6170;42.206;24.142;2022-11-20T08:14:44;98229.34;;;20.31;67.43
12215;BME280;6170;42.206;24.142;2022-11-20T08:17:11;98228.09;;;19.88;68.94
12215;BME280;6170;42.206;24.142;2022-11-20T08:19:38;98212.53;;;20.13;68.98
12215;BME280;6170;42.206;24.142;2022-11-20T08:22:05;98204.03;;;20.84;68.46
12215;BME280;6170;42.206;24.142;2022-11-20T08:24:33;98183.13;;;21.14;66.91
12215;BME280;6170;42.206;24.142;2022-11-20T08:27:00;98186.97;;;20.69;67.27
12215;BME280;6170;42.206;24.142;2022-11-20T08:29:27;98167.63;;;20.70;65.93
12215;BME280;6170;42.206;24.142;2022-11-20T08:31:54;98175.41;;;20.87;67.03
12215;BME280;6170;42.206;24.142;2022-11-20T08:34:20;98172.31;;;20.98;65.33
12215;BME280;6170;42.206;24.142;2022-11-20T08:36:47;98184.78;;;21.10;65.79
12215;BME280;6170;42.206;24.142;2022-11-20T08:39:14;98191.88;;;21.05;64.59
12215;BME280;6170;42.206;24.142;2022-11-20T08:41:42;98186.00;;;21.27;65.19
12215;BME280;6170;42.206;24.142;2022-11-20T08:44:09;98182.50;;;20.88;64.24
12215;BME280;6170;42.206;24.142;2022-11-20T08:46:38;98183.50;;;20.97;63.56
12215;BME280;6170;42.206;24.142;2022-11-20T08:49:07;98175.19;;;20.78;64.61
12215;BME280;6170;42.206;24.142;2022-11-20T08:51:35;98169.50;;;20.21;66.67
12215;BME280;6170;42.206;24.142;2022-11-20T08:54:03;98165.13;;;20.35;67.04
12215;BME280;6170;42.206;24.142;2022-11-20T08:56:30;98176.97;;;20.54;66.19
12215;BME280;6170;42.206;24.142;2022-11-20T08:58:58;98174.19;;;20.64;66.16
12215;BME280;6170;42.206;24.142;2022-11-20T09:01:26;98177.88;;;20.44;66.91
12215;BME280;6170;42.206;24.142;2022-11-20T09:03:54;98169.53;;;20.70;66.87
12215;BME280;6170;42.206;24.142;2022-11-20T09:06:22;98166.66;;;20.90;66.51
12215;BME280;6170;42.206;24.142;2022-11-20T09:08:51;98152.72;;;20.96;65.33
12215;BME280;6170;42.206;24.142;2022-11-20T09:11:18;98156.78;;;21.62;65.60
12215;BME280;6170;42.206;24.142;2022-11-20T09:13:45;98151.31;;;21.90;62.88
12215;BME280;6170;42.206;24.142;2022-11-20T09:16:13;98143.72;;;22.30;59.27
12215;BME280;6170;42.206;24.142;2022-11-20T09:18:40;98149.50;;;22.66;61.33
12215;BME280;6170;42.206;24.142;2022-11-20T09:21:09;98140.41;;;22.70;59.99
12215;BME280;6170;42.206;24.142;2022-11-20T09:23:38;98144.75;;;22.53;61.04
12215;BME280;6170;42.206;24.142;2022-11-20T09:26:06;98139.97;;;22.45;60.64
12215;BME280;6170;42.206;24.142;2022-11-20T09:28:33;98131.69;;;22.68;60.12
12215;BME280;6170;42.206;24.142;2022-11-20T09:31:00;98132.25;;;23.03;60.35
12215;BME280;6170;42.206;24.142;2022-11-20T09:33:28;98130.81;;;22.35;60.10
12215;BME280;6170;42.206;24.142;2022-11-20T09:35:55;98111.25;;;22.28;61.39
12215;BME280;6170;42.206;24.142;2022-11-20T09:38:22;98122.78;;;22.25;60.28
12215;BME280;6170;42.206;24.142;2022-11-20T09:40:55;98127.28;;;22.54;60.88
12215;BME280;6170;42.206;24.142;2022-11-20T09:43:30;98125.22;;;22.46;60.18
12215;BME280;6170;42.206;24.142;2022-11-20T09:46:08;98139.16;;;22.63;60.10
12215;BME280;6170;42.206;24.142;2022-11-20T09:48:57;98128.59;;;22.94;59.57
12215;BME280;6170;42.206;24.142;2022-11-20T09:51:39;98122.63;;;22.92;60.43
12215;BME280;6170;42.206;24.142;2022-11-20T09:54:16;98124.41;;;22.64;60.46
12215;BME280;6170;42.206;24.142;2022-11-20T09:56:45;98131.56;;;23.11;59.77
12215;BME280;6170;42.206;24.142;2022-11-20T09:59:26;98115.63;;;23.18;57.35
12215;BME280;6170;42.206;24.142;2022-11-20T10:01:55;98093.34;;;23.24;58.38
12215;BME280;6170;42.206;24.142;2022-11-20T10:04:24;98102.69;;;23.37;59.38
12215;BME280;6170;42.206;24.142;2022-11-20T10:06:56;98093.13;;;23.67;57.78
12215;BME280;6170;42.206;24.142;2022-11-20T10:09:29;98098.09;;;24.20;54.99
12215;BME280;6170;42.206;24.142;2022-11-20T10:12:06;98087.75;;;23.62;55.26
12215;BME280;6170;42.206;24.142;2022-11-20T10:14:49;98066.78;;;23.44;52.06
12215;BME280;6170;42.206;24.142;2022-11-20T10:17:25;98048.75;;;23.56;52.35
12215;BME280;6170;42.206;24.142;2022-11-20T10:20:07;98070.72;;;23.79;49.29
12215;BME280;6170;42.206;24.142;2022-11-20T10:22:48;98061.59;;;23.97;49.73
12215;BME280;6170;42.206;24.142;2022-11-20T10:25:19;98085.78;;;24.89;52.63
12215;BME280;6170;42.206;24.142;2022-11-20T10:28:10;98060.38;;;24.39;54.04
12215;BME280;6170;42.206;24.142;2022-11-20T10:30:43;98062.09;;;23.99;54.73
12215;BME280;6170;42.206;24.142;2022-11-20T10:33:16;98067.06;;;24.24;55.35
12215;BME280;6170;42.206;24.142;2022-11-20T10:35:51;98070.94;;;24.45;54.26
12215;BME280;6170;42.206;24.142;2022-11-20T10:38:23;98055.50;;;25.16;52.53
12215;BME280;6170;42.206;24.142;2022-11-20T10:40:54;98052.44;;;25.18;51.33
12215;BME280;6170;42.206;24.142;2022-11-20T10:43:43;98043.50;;;24.81;51.48
12215;BME280;6170;42.206;24.142;2022-11-20T10:46:15;98049.41;;;24.75;50.17
12215;BME280;6170;42.206;24.142;2022-11-20T10:48:43;98015.69;;;24.30;48.08
12215;BME280;6170;42.206;24.142;2022-11-20T10:51:21;98039.97;;;24.09;48.40
12215;BME280;6170;42.206;24.142;2022-11-20T10:53:57;98030.91;;;23.86;48.66
12215;BME280;6170;42.206;24.142;2022-11-20T10:56:31;98030.59;;;23.88;48.60
12215;BME280;6170;42.206;24.142;2022-11-20T10:59:19;98022.31;;;23.52;49.24
12215;BME280;6170;42.206;24.142;2022-11-20T11:01:51;98033.22;;;23.24;49.33
12215;BME280;6170;42.206;24.142;2022-11-20T11:04:28;98033.09;;;23.16;51.38
12215;BME280;6170;42.206;24.142;2022-11-20T11:07:04;98037.53;;;22.98;50.95
12215;BME280;6170;42.206;24.142;2022-11-20T11:09:35;98035.38;;;22.81;50.54
12215;BME280;6170;42.206;24.142;2022-11-20T11:12:07;98037.78;;;22.69;50.76
12215;BME280;6170;42.206;24.142;2022-11-20T11:14:42;98024.38;;;22.68;50.25
12215;BME280;6170;42.206;24.142;2022-11-20T11:17:20;98023.22;;;22.74;49.51
12215;BME280;6170;42.206;24.142;2022-11-20T11:20:00;98017.81;;;22.69;49.67
12215;BME280;6170;42.206;24.142;2022-11-20T11:22:29;98022.63;;;22.77;49.03
12215;BME280;6170;42.206;24.142;2022-11-20T11:24:56;98017.25;;;22.53;49.00
12215;BME280;6170;42.206;24.142;2022-11-20T11:27:23;98003.91;;;22.52;48.64
12215;BME280;6170;42.206;24.142;2022-11-20T11:30:02;98004.31;;;22.59;48.22
12215;BME280;6170;42.206;24.142;2022-11-20T11:32:29;97992.69;;;22.53;48.95
12215;BME280;6170;42.206;24.142;2022-11-20T11:35:00;98057.22;;;22.81;51.10
12215;BME280;6170;42.206;24.142;2022-11-20T11:37:33;98014.63;;;22.48;50.58
12215;BME280;6170;42.206;24.142;2022-11-20T11:40:01;98007.69;;;22.37;52.31
12215;BME280;6170;42.206;24.142;2022-11-20T11:42:28;98022.91;;;22.43;50.59
12215;BME280;6170;42.206;24.142;2022-11-20T11:44:58;98029.53;;;22.37;51.20
12215;BME280;6170;42.206;24.142;2022-11-20T11:47:32;98026.69;;;22.61;50.79
12215;BME280;6170;42.206;24.142;2022-11-20T11:50:14;98019.63;;;22.41;51.92
12215;BME280;6170;42.206;24.142;2022-11-20T11:52:45;98010.81;;;22.30;50.09
12215;BME280;6170;42.206;24.142;2022-11-20T11:55:16;98002.16;;;22.23;51.51
12215;BME280;6170;42.206;24.142;2022-11-20T11:57:46;98020.03;;;22.34;52.36
12215;BME280;6170;42.206;24.142;2022-11-20T12:00:18;98019.38;;;22.24;50.16
12215;BME280;6170;42.206;24.142;2022-11-20T12:02:54;98029.38;;;22.28;51.56
12215;BME280;6170;42.206;24.142;2022-11-20T12:05:24;98031.44;;;22.36;51.26
12215;BME280;6170;42.206;24.142;2022-11-20T12:07:56;98022.91;;;22.24;51.21
12215;BME280;6170;42.206;24.142;2022-11-20T12:10:37;98036.09;;;22.17;50.63
12215;BME280;6170;42.206;24.142;2022-11-20T12:13:19;98034.75;;;21.96;52.01
12215;BME280;6170;42.206;24.142;2022-11-20T12:15:48;98013.16;;;21.81;51.74
12215;BME280;6170;42.206;24.142;2022-11-20T12:18:17;98045.59;;;22.01;51.74
12215;BME280;6170;42.206;24.142;2022-11-20T12:20:55;98036.69;;;21.95;50.85
12215;BME280;6170;42.206;24.142;2022-11-20T12:23:36;98030.06;;;22.02;51.01
12215;BME280;6170;42.206;24.142;2022-11-20T12:26:16;98012.19;;;21.90;51.28
12215;BME280;6170;42.206;24.142;2022-11-20T12:28:56;98028.81;;;21.94;50.02
12215;BME280;6170;42.206;24.142;2022-11-20T12:31:42;98036.22;;;21.88;50.47
12215;BME280;6170;42.206;24.142;2022-11-20T12:34:33;98071.56;;;21.99;51.23
12215;BME280;6170;42.206;24.142;2022-11-20T12:37:10;98013.75;;;21.54;51.69
12215;BME280;6170;42.206;24.142;2022-11-20T12:39:42;98040.34;;;21.86;51.38
12215;BME280;6170;42.206;24.142;2022-11-20T12:48:41;98081.81;;;22.07;51.93
12215;BME280;6170;42.206;24.142;2022-11-20T12:51:24;98026.19;;;21.84;53.00
12215;BME280;6170;42.206;24.142;2022-11-20T12:54:09;98049.41;;;21.81;53.71
12215;BME280;6170;42.206;24.142;2022-11-20T12:56:43;98061.22;;;21.95;53.29
12215;BME280;6170;42.206;24.142;2022-11-20T12:59:27;98070.84;;;21.88;53.09
12215;BME280;6170;42.206;24.142;2022-11-20T13:02:05;98081.94;;;21.97;54.93
12215;BME280;6170;42.206;24.142;2022-11-20T13:04:55;98090.66;;;21.75;53.66
12215;BME280;6170;42.206;24.142;2022-11-20T13:07:32;98095.22;;;21.56;54.26
12215;BME280;6170;42.206;24.142;2022-11-20T13:10:00;98089.13;;;21.11;55.39
12215;BME280;6170;42.206;24.142;2022-11-20T13:12:32;98107.09;;;21.12;54.66
12215;BME280;6170;42.206;24.142;2022-11-20T13:15:06;98124.16;;;20.94;55.17